createdAt,value
2023-04-10T00:01:39.466Z,100975.69
2023-04-10T00:04:10.877Z,100974.31
2023-04-10T00:06:42.887Z,100963.56
2023-04-10T00:09:14.577Z,100973.41
2023-04-10T00:11:43.878Z,100975.34
2023-04-10T00:14:15.700Z,100972.34
2023-04-10T00:16:45.215Z,100972.56
2023-04-10T00:19:14.391Z,100978.97
2023-04-10T00:21:43.992Z,100978.44
2023-04-10T00:24:14.730Z,100955.53
2023-04-10T00:26:43.798Z,100960.41
2023-04-10T00:29:13.006Z,100980.00
2023-04-10T00:31:42.257Z,100968.19
2023-04-10T00:34:12.037Z,100968.34
2023-04-10T00:36:41.333Z,100973.22
2023-04-10T00:39:15.554Z,100936.38
2023-04-10T00:41:48.658Z,100961.69
2023-04-10T00:44:17.846Z,100970.78
2023-04-10T00:46:46.973Z,100970.69
2023-04-10T00:49:16.017Z,100980.00
2023-04-10T00:51:45.834Z,100971.72
2023-04-10T00:54:16.653Z,100960.41
2023-04-10T00:56:47.496Z,100936.97
2023-04-10T00:59:17.131Z,100963.84
2023-04-10T01:01:46.578Z,100961.22
2023-04-10T01:04:17.001Z,100974.75
2023-04-10T01:06:55.716Z,100969.19
2023-04-10T01:09:40.230Z,100966.00
2023-04-10T01:12:17.666Z,100971.03
2023-04-10T01:15:05.922Z,100949.25
2023-04-10T01:17:42.264Z,100961.78
2023-04-10T01:20:15.848Z,100957.47
2023-04-10T01:23:01.472Z,100963.63
2023-04-10T01:25:45.249Z,100942.06
2023-04-10T01:28:34.811Z,100950.06
2023-04-10T01:31:07.809Z,100940.16
2023-04-10T01:33:42.137Z,100956.03
2023-04-10T01:36:13.402Z,100916.13
2023-04-10T01:38:44.944Z,100934.81
2023-04-10T01:41:15.185Z,100935.66
2023-04-10T01:43:44.672Z,100962.50
2023-04-10T01:46:15.880Z,100955.31
2023-04-10T01:48:46.436Z,100960.25
2023-04-10T01:51:16.864Z,100962.94
2023-04-10T01:53:49.002Z,100965.94
2023-04-10T01:56:24.250Z,100959.47
2023-04-10T01:58:53.647Z,100955.25
2023-04-10T02:01:29.814Z,100955.72
2023-04-10T02:04:00.456Z,100966.88
2023-04-10T02:06:41.118Z,100964.28
2023-04-10T02:09:22.091Z,100967.75
2023-04-10T02:11:57.117Z,100949.66
2023-04-10T02:14:29.744Z,100967.38
2023-04-10T02:17:02.723Z,100972.88
2023-04-10T02:19:33.361Z,100973.56
2023-04-10T02:22:03.050Z,100969.97
2023-04-10T02:24:33.993Z,100972.88
2023-04-10T02:27:06.355Z,100976.50
2023-04-10T02:29:49.089Z,100980.31
2023-04-10T02:32:19.752Z,100923.31
2023-04-10T02:34:48.787Z,100967.34
2023-04-10T02:37:17.985Z,100980.94
2023-04-10T02:39:47.141Z,100972.91
2023-04-10T02:42:16.856Z,100982.53
2023-04-10T02:44:46.475Z,100961.91
2023-04-10T02:47:16.233Z,100977.28
2023-04-10T02:49:49.516Z,100973.50
2023-04-10T02:52:19.858Z,100979.69
2023-04-10T02:54:49.081Z,100973.94
2023-04-10T02:57:21.575Z,100975.47
2023-04-10T02:59:52.273Z,100970.34
2023-04-10T03:02:23.108Z,100938.09
2023-04-10T03:04:56.725Z,100938.72
2023-04-10T03:07:26.120Z,100961.34
2023-04-10T03:09:56.293Z,100967.63
2023-04-10T03:12:25.546Z,100981.22
2023-04-10T03:14:54.655Z,100959.00
2023-04-10T03:17:23.763Z,100979.31
2023-04-10T03:19:54.871Z,100977.56
2023-04-10T03:22:24.644Z,100849.72
2023-04-10T03:24:54.186Z,100981.16
2023-04-10T03:27:26.458Z,100982.41
2023-04-10T03:29:55.668Z,100972.31
2023-04-10T03:32:24.796Z,100982.31
2023-04-10T03:34:55.993Z,100976.34
2023-04-10T03:37:25.801Z,100922.09
2023-04-10T03:39:57.660Z,100986.44
2023-04-10T03:42:27.154Z,100997.91
2023-04-10T03:44:57.612Z,100984.00
2023-04-10T03:47:27.271Z,100989.97
2023-04-10T03:49:57.855Z,100991.50
2023-04-10T03:52:28.783Z,100995.31
2023-04-10T03:55:01.481Z,100991.53
2023-04-10T03:57:31.052Z,100979.50
2023-04-10T04:00:05.948Z,100996.78
2023-04-10T04:02:51.037Z,100998.50
2023-04-10T04:05:36.977Z,101006.38
2023-04-10T04:08:41.822Z,100987.22
2023-04-10T04:11:34.159Z,101008.69
2023-04-10T04:14:07.213Z,101000.19
2023-04-10T04:17:15.826Z,101019.88
2023-04-10T04:20:16.045Z,101002.56
2023-04-10T04:23:19.462Z,101001.31
2023-04-10T04:26:09.704Z,101011.47
2023-04-10T04:28:58.430Z,101012.66
2023-04-10T04:32:03.482Z,101019.13
2023-04-10T04:34:54.756Z,101011.94
2023-04-10T04:37:33.689Z,101014.97
2023-04-10T04:40:22.750Z,101025.31
2023-04-10T04:43:33.117Z,101026.28
2023-04-10T04:46:09.447Z,100978.00
2023-04-10T04:48:57.117Z,100986.13
2023-04-10T04:51:51.793Z,101028.44
2023-04-10T04:54:50.253Z,100983.16
2023-04-10T04:57:48.537Z,101014.97
2023-04-10T05:00:34.265Z,101033.03
2023-04-10T05:03:29.610Z,101043.41
2023-04-10T05:06:18.897Z,101029.94
2023-04-10T05:09:09.424Z,101033.13
2023-04-10T05:12:04.049Z,101025.66
2023-04-10T05:14:58.996Z,101038.38
2023-04-10T05:17:54.849Z,101039.53
2023-04-10T05:20:50.812Z,101050.63
2023-04-10T05:23:39.769Z,101045.28
2023-04-10T05:26:25.896Z,101049.31
2023-04-10T05:29:06.645Z,101049.31
2023-04-10T05:31:56.081Z,101056.13
2023-04-10T05:34:48.280Z,101040.00
2023-04-10T05:37:34.689Z,101051.06
2023-04-10T05:40:36.381Z,101052.84
2023-04-10T05:43:24.366Z,101041.63
2023-04-10T05:46:01.774Z,101058.72
2023-04-10T05:48:53.329Z,101054.34
2023-04-10T05:51:39.603Z,101029.06
2023-04-10T05:54:21.235Z,101052.09
2023-04-10T05:57:12.331Z,100987.81
2023-04-10T06:00:02.568Z,101047.16
2023-04-10T06:02:46.458Z,101051.78
2023-04-10T06:05:26.080Z,101024.59
2023-04-10T06:08:01.503Z,101059.78
2023-04-10T06:10:31.796Z,101050.00
2023-04-10T06:13:01.950Z,101060.28
2023-04-10T06:15:33.216Z,101061.03
2023-04-10T06:18:02.536Z,101068.28
2023-04-10T06:20:33.698Z,101068.66
2023-04-10T06:23:04.001Z,101048.31
2023-04-10T06:25:33.302Z,101072.75
2023-04-10T06:28:02.846Z,101062.41
2023-04-10T06:30:34.710Z,101060.78
2023-04-10T06:33:04.858Z,101059.69
2023-04-10T06:35:38.802Z,101069.75
2023-04-10T06:38:09.053Z,101067.84
2023-04-10T06:40:39.403Z,101067.03
2023-04-10T06:43:09.013Z,101060.97
2023-04-10T06:45:43.270Z,101052.28
2023-04-10T06:48:13.404Z,101054.53
2023-04-10T06:50:46.950Z,101035.16
2023-04-10T06:53:18.766Z,101075.41
2023-04-10T06:55:48.317Z,101072.19
2023-04-10T06:58:17.785Z,101075.50
2023-04-10T07:00:47.369Z,101088.50
2023-04-10T07:03:16.660Z,101075.50
2023-04-10T08:15:04.853Z,101114.47
2023-04-10T08:17:37.961Z,101111.09
2023-04-10T08:20:08.917Z,101113.69
2023-04-10T08:22:42.057Z,101122.53
2023-04-10T08:25:15.498Z,101105.50
2023-04-10T08:27:45.269Z,101106.19
2023-04-10T08:30:14.923Z,101115.78
2023-04-10T08:32:44.547Z,101118.25
2023-04-10T08:35:14.191Z,101102.56
2023-04-10T08:37:49.632Z,101102.06
2023-04-10T08:40:24.449Z,101109.78
2023-04-10T08:42:54.265Z,101104.66
2023-04-10T08:45:24.161Z,101102.81
2023-04-10T08:47:56.645Z,101091.50
2023-04-10T08:50:27.132Z,101088.75
2023-04-10T08:52:57.893Z,101102.81
2023-04-10T08:55:28.642Z,101109.66
2023-04-10T08:58:01.530Z,101101.56
2023-04-10T09:00:34.633Z,101083.34
2023-04-10T09:03:05.430Z,101089.47
2023-04-10T09:05:36.941Z,101102.50
2023-04-10T09:08:06.230Z,101097.09
2023-04-10T09:10:37.112Z,101092.47
2023-04-10T09:13:06.308Z,101100.59
2023-04-10T09:16:00.371Z,101078.25
2023-04-10T09:18:41.955Z,101099.00
2023-04-10T09:21:15.378Z,101102.22
2023-04-10T09:23:47.076Z,101093.28
2023-04-10T09:26:28.584Z,101096.44
2023-04-10T09:29:00.219Z,101102.94
2023-04-10T09:31:34.297Z,101095.53
2023-04-10T09:34:13.548Z,101103.28
2023-04-10T09:36:43.683Z,101098.44
2023-04-10T09:39:13.548Z,101101.84
2023-04-10T09:41:52.512Z,101098.22
2023-04-10T09:44:31.307Z,101111.59
2023-04-10T09:47:01.255Z,101106.50
2023-04-10T09:49:45.755Z,101101.66
2023-04-10T09:52:20.591Z,101094.91
2023-04-10T09:54:50.006Z,101101.38
2023-04-10T09:57:24.060Z,101096.56
2023-04-10T09:59:58.225Z,101097.34
2023-04-10T10:02:32.714Z,101094.56
2023-04-10T10:05:03.040Z,101082.41
2023-04-10T10:07:33.515Z,101080.31
2023-04-10T10:10:04.682Z,101086.66
2023-04-10T10:12:41.835Z,101100.22
2023-04-10T10:15:17.995Z,101079.88
2023-04-10T10:17:55.572Z,101072.97
2023-04-10T10:20:26.243Z,101039.22
2023-04-10T10:22:57.287Z,101078.03
2023-04-10T10:25:27.914Z,101090.34
2023-04-10T10:28:04.119Z,101090.28
2023-04-10T10:30:41.928Z,101082.31
2023-04-10T10:33:14.330Z,101048.00
2023-04-10T10:35:44.263Z,101081.53
2023-04-10T10:38:14.118Z,101069.94
2023-04-10T10:40:50.624Z,101077.59
2023-04-10T10:43:34.308Z,101055.78
2023-04-10T10:46:05.179Z,101065.16
2023-04-10T10:48:34.980Z,101071.50
2023-04-10T10:51:04.529Z,101078.63
2023-04-10T10:53:40.372Z,101086.31
2023-04-10T10:56:46.201Z,101089.41
2023-04-10T10:59:17.553Z,101085.94
2023-04-10T11:02:16.342Z,101053.72
2023-04-10T11:04:46.402Z,101073.63
2023-04-10T11:07:16.337Z,101066.53
2023-04-10T11:09:52.970Z,101088.44
2023-04-10T11:12:24.196Z,101088.50
2023-04-10T11:15:02.206Z,101086.34
2023-04-10T11:17:52.119Z,101075.50
2023-04-10T11:20:27.317Z,101052.44
2023-04-10T11:23:12.976Z,101074.50
2023-04-10T11:25:50.401Z,101068.97
2023-04-10T11:28:39.744Z,101082.56
2023-04-10T11:31:19.999Z,101078.09
2023-04-10T11:33:52.186Z,101064.06
2023-04-10T11:36:27.349Z,101069.78
2023-04-10T11:38:58.149Z,101063.44
2023-04-10T11:41:32.225Z,101060.63
2023-04-10T11:44:03.586Z,101062.22
2023-04-10T11:46:39.332Z,101020.75
2023-04-10T11:49:10.380Z,101063.22
2023-04-10T11:51:40.903Z,101057.75
2023-04-10T11:54:11.332Z,101050.94
2023-04-10T11:56:41.630Z,101046.63
2023-04-10T11:59:14.478Z,101047.81
2023-04-10T12:01:45.483Z,101050.19
2023-04-10T12:04:23.501Z,101021.28
2023-04-10T12:06:55.306Z,101032.66
2023-04-10T12:09:25.154Z,101044.84
2023-04-10T12:11:59.801Z,101030.06
2023-04-10T12:14:33.509Z,101020.84
2023-04-10T12:17:43.356Z,101039.09
2023-04-10T12:20:25.018Z,100891.22
2023-04-10T12:23:05.379Z,100951.19
2023-04-10T12:25:39.428Z,101032.66
2023-04-10T12:28:09.652Z,101038.66
2023-04-10T12:30:40.414Z,101036.94
2023-04-10T12:33:12.662Z,101028.88
2023-04-10T12:35:44.014Z,101015.53
2023-04-10T12:38:22.914Z,101014.50
2023-04-10T12:41:04.980Z,101014.16
2023-04-10T12:43:35.620Z,101001.31
2023-04-10T12:46:18.579Z,100908.09
2023-04-10T12:48:51.508Z,101005.72
2023-04-10T12:51:28.102Z,101005.72
2023-04-10T12:53:58.162Z,100983.00
2023-04-10T12:56:36.450Z,100969.25
2023-04-10T12:59:10.785Z,100996.22
2023-04-10T13:01:42.553Z,100935.03
2023-04-10T13:04:14.283Z,101009.34
2023-04-10T13:06:45.360Z,100964.31
2023-04-10T13:09:15.859Z,100995.00
2023-04-10T13:11:46.083Z,101006.44
2023-04-10T13:14:17.091Z,101008.66
2023-04-10T13:16:47.141Z,101010.59
2023-04-10T13:19:17.866Z,100989.31
2023-04-10T13:21:50.884Z,100992.34
2023-04-10T13:24:22.752Z,101003.28
2023-04-10T13:26:52.459Z,101031.06
2023-04-10T13:29:26.815Z,101026.19
2023-04-10T13:31:57.906Z,101013.72
2023-04-10T13:34:31.409Z,101006.25
2023-04-10T13:37:04.052Z,101007.97
2023-04-10T13:39:35.911Z,101007.88
2023-04-10T13:42:05.410Z,100991.53
2023-04-10T13:44:36.309Z,101001.06
2023-04-10T13:47:08.901Z,100996.00
2023-04-10T13:49:41.825Z,100992.19
2023-04-10T13:52:11.452Z,100987.09
2023-04-10T13:55:25.511Z,100979.41
2023-04-10T13:57:56.132Z,100965.28
2023-04-10T14:00:25.377Z,100961.56
2023-04-10T14:06:15.540Z,100856.00
2023-04-10T14:08:46.313Z,100976.97
2023-04-10T14:11:19.417Z,100973.09
2023-04-10T14:13:52.764Z,100965.47
2023-04-10T14:16:25.232Z,100968.75
2023-04-10T14:18:56.437Z,100968.00
2023-04-10T14:21:36.794Z,100971.78
2023-04-10T14:24:10.008Z,100972.22
2023-04-10T14:26:40.786Z,100969.47
2023-04-10T14:29:14.755Z,100958.94
2023-04-10T14:31:57.627Z,100949.03
2023-04-10T14:34:32.082Z,100969.91
2023-04-10T14:37:02.881Z,100932.25
2023-04-10T14:39:41.464Z,100949.63
2023-04-10T14:42:13.051Z,100955.06
2023-04-10T14:44:43.942Z,100928.34
2023-04-10T14:47:15.968Z,100958.91
2023-04-10T14:49:48.201Z,100939.34
2023-04-10T14:52:18.795Z,100945.13
2023-04-10T14:54:49.413Z,100949.13
2023-04-10T14:57:21.566Z,100930.50
2023-04-10T14:59:51.285Z,100932.91
2023-04-10T15:02:21.911Z,100938.72
2023-04-10T15:04:52.886Z,100921.03
2023-04-10T15:07:28.533Z,100926.38
2023-04-10T15:10:01.546Z,100932.13
2023-04-10T15:12:33.692Z,100925.25
2023-04-10T15:15:16.173Z,100925.66
2023-04-10T15:17:46.688Z,100929.13
2023-04-10T15:20:21.672Z,100926.84
2023-04-10T15:22:55.325Z,100934.75
2023-04-10T15:25:26.989Z,100924.34
2023-04-10T15:27:57.341Z,100901.63
2023-04-10T15:30:28.461Z,100922.47
2023-04-10T15:32:58.439Z,100911.38
2023-04-10T15:35:30.525Z,100908.03
2023-04-10T15:38:06.918Z,100907.06
2023-04-10T15:40:39.656Z,100876.97
2023-04-10T15:43:16.748Z,100906.84
2023-04-10T15:45:53.056Z,100907.59
2023-04-10T15:48:26.759Z,100896.13
2023-04-10T15:51:00.513Z,100893.94
2023-04-10T15:53:31.981Z,100908.78
2023-04-10T15:56:06.363Z,100903.53
2023-04-10T15:58:40.874Z,100885.97
2023-04-10T16:01:19.429Z,100894.56
2023-04-10T16:03:59.190Z,100850.91
2023-04-10T16:06:36.739Z,100893.94
2023-04-10T16:09:18.656Z,100868.09
2023-04-10T16:11:57.976Z,100858.81
2023-04-10T16:14:29.918Z,100849.44
2023-04-10T16:17:02.092Z,100878.88
2023-04-10T16:19:32.614Z,100880.25
2023-04-10T16:22:02.357Z,100887.63
2023-04-10T16:24:35.890Z,100878.69
2023-04-10T16:27:05.322Z,100879.66
2023-04-10T16:29:34.593Z,100887.50
2023-04-10T16:32:03.878Z,100884.88
2023-04-10T16:34:33.331Z,100884.09
2023-04-10T16:37:02.928Z,100894.84
2023-04-10T16:39:32.014Z,100880.34
2023-04-10T16:42:03.595Z,100883.72
2023-04-10T16:44:33.796Z,100890.59
2023-04-10T16:47:02.881Z,100861.25
2023-04-10T16:49:32.204Z,100886.06
2023-04-10T16:52:01.918Z,100873.97
2023-04-10T16:54:31.232Z,100888.72
2023-04-10T16:57:00.415Z,100873.75
2023-04-10T16:59:30.834Z,100893.00
2023-04-10T17:02:03.778Z,100887.50
2023-04-10T17:04:32.963Z,100887.88
2023-04-10T17:07:02.376Z,100865.34
2023-04-10T17:09:32.097Z,100887.13
2023-04-10T17:12:01.231Z,100890.41
2023-04-10T17:14:33.507Z,100884.41
2023-04-10T17:17:02.744Z,100886.78
2023-04-10T17:19:33.048Z,100880.28
2023-04-10T17:22:02.500Z,100896.72
2023-04-10T17:24:31.887Z,100887.91
2023-04-10T17:27:02.362Z,100903.47
2023-04-10T17:29:37.354Z,100904.69
2023-04-10T17:32:07.281Z,100847.69
2023-04-10T17:34:38.688Z,100899.00
2023-04-10T17:37:08.386Z,100889.69
2023-04-10T17:39:38.570Z,100863.03
2023-04-10T17:42:08.782Z,100910.31
2023-04-10T17:44:39.053Z,100909.75
2023-04-10T17:47:08.242Z,100911.88
2023-04-10T17:49:39.736Z,100891.63
2023-04-10T17:52:09.030Z,100902.09
2023-04-10T17:54:45.426Z,100909.94
2023-04-10T17:57:17.227Z,100906.06
2023-04-10T17:59:52.376Z,100897.09
2023-04-10T18:09:02.820Z,100814.97
2023-04-10T18:11:33.272Z,100864.34
2023-04-10T18:14:02.491Z,100916.41
2023-04-10T18:16:41.876Z,100913.91
2023-04-10T18:19:25.517Z,100854.16
2023-04-10T18:22:57.837Z,100849.22
2023-04-10T18:25:46.667Z,100753.19
2023-04-10T18:29:27.858Z,100747.59
2023-04-10T18:32:47.728Z,100810.00
2023-04-10T18:36:07.895Z,100910.94
2023-04-10T18:38:47.848Z,100884.06
2023-04-10T18:41:17.117Z,100910.22
2023-04-10T18:43:51.256Z,100919.31
2023-04-10T18:47:03.913Z,100853.31
2023-04-10T18:49:51.885Z,100724.03
2023-04-10T18:52:24.759Z,100928.94
2023-04-10T18:55:08.443Z,100921.63
2023-04-10T18:57:38.272Z,100905.25
2023-04-10T19:00:09.900Z,100923.34
2023-04-10T19:02:39.406Z,100916.13
2023-04-10T19:05:14.296Z,100905.22
2023-04-10T19:07:56.667Z,100813.72
2023-04-10T19:10:33.897Z,100916.59
2023-04-10T19:13:03.932Z,100926.47
2023-04-10T19:15:33.183Z,100924.34
2023-04-10T19:18:03.359Z,100884.84
2023-04-10T19:20:50.006Z,100919.16
2023-04-10T19:23:21.305Z,100922.50
2023-04-10T19:25:53.816Z,100930.88
2023-04-10T19:28:26.578Z,100913.81
2023-04-10T19:30:56.041Z,100916.06
2023-04-10T19:33:25.665Z,100923.00
2023-04-10T19:36:00.943Z,100879.81
2023-04-10T19:38:30.763Z,100920.38
2023-04-10T19:41:00.354Z,100917.72
2023-04-10T19:43:30.297Z,100865.16
2023-04-10T19:46:07.407Z,100915.72
2023-04-10T19:48:44.826Z,100811.00
2023-04-10T19:51:16.388Z,100911.19
2023-04-10T19:53:48.117Z,100911.00
2023-04-10T19:56:18.274Z,100913.81
2023-04-10T19:58:48.129Z,100893.78
2023-04-10T20:01:18.341Z,100871.78
2023-04-10T20:03:47.740Z,100903.50
2023-04-10T20:06:20.523Z,100907.22
2023-04-10T20:08:49.729Z,100904.06
2023-04-10T20:11:20.783Z,100905.22
2023-04-10T20:13:49.969Z,100906.00
2023-04-10T20:16:19.405Z,100895.13
2023-04-10T20:18:48.938Z,100890.66
2023-04-10T20:21:20.335Z,100902.16
2023-04-10T20:23:51.753Z,100905.41
2023-04-10T20:26:21.701Z,100898.47
2023-04-10T20:28:55.038Z,100908.81
2023-04-10T20:31:24.657Z,100895.50
2023-04-10T20:33:54.766Z,100911.19
2023-04-10T20:36:26.514Z,100897.13
2023-04-10T20:38:56.351Z,100903.22
2023-04-10T20:41:26.413Z,100905.00
2023-04-10T20:43:57.516Z,100878.88
2023-04-10T20:46:27.575Z,100893.03
2023-04-10T20:48:59.311Z,100900.09
2023-04-10T20:51:30.287Z,100906.53
2023-04-10T20:53:59.590Z,100905.66
2023-04-10T20:56:36.705Z,100905.41
2023-04-10T20:59:13.179Z,100888.56
2023-04-10T21:01:42.839Z,100904.75
2023-04-10T21:04:11.996Z,100892.78
2023-04-10T21:06:45.626Z,100901.00
2023-04-10T21:09:14.648Z,100894.16
2023-04-10T21:11:43.959Z,100897.06
2023-04-10T21:14:17.614Z,100882.69
2023-04-10T21:16:49.726Z,100758.66
2023-04-10T21:19:18.889Z,100861.94
2023-04-10T21:21:49.343Z,100901.34
2023-04-10T21:24:19.002Z,100902.91
2023-04-10T21:26:48.304Z,100897.31
2023-04-10T21:29:17.612Z,100882.75
2023-04-10T21:31:47.908Z,100905.38
2023-04-10T21:34:18.636Z,100897.50
2023-04-10T21:36:49.519Z,100896.06
2023-04-10T21:39:18.717Z,100832.31
2023-04-10T21:41:47.782Z,100906.78
2023-04-10T21:44:17.241Z,100879.41
2023-04-10T21:46:46.626Z,100899.94
2023-04-10T21:49:15.930Z,100898.41
2023-04-10T21:51:45.168Z,100889.47
2023-04-10T21:54:15.540Z,100895.66
2023-04-10T21:56:44.828Z,100888.81
2023-04-10T21:59:13.952Z,100886.66
2023-04-10T22:01:46.009Z,100895.38
2023-04-10T22:04:15.766Z,100891.97
2023-04-10T22:06:45.028Z,100888.75
2023-04-10T22:09:15.916Z,100852.19
2023-04-10T22:11:45.262Z,100880.41
2023-04-10T22:14:17.927Z,100851.16
2023-04-10T22:16:47.987Z,100885.63
2023-04-10T22:19:17.374Z,100872.13
2023-04-10T22:21:46.716Z,100874.69
2023-04-10T22:24:17.362Z,100871.09
2023-04-10T22:26:47.085Z,100787.50
2023-04-10T22:29:16.410Z,100868.88
2023-04-10T22:31:46.524Z,100864.63
2023-04-10T22:34:16.268Z,100864.63
2023-04-10T22:36:45.462Z,100872.41
2023-04-10T22:39:15.170Z,100865.94
2023-04-10T22:41:45.926Z,100874.69
2023-04-10T22:44:15.069Z,100861.13
2023-04-10T22:46:44.379Z,100827.97
2023-04-10T22:49:17.122Z,100843.19
2023-04-10T22:51:56.934Z,100849.44
2023-04-10T22:54:26.485Z,100855.59
2023-04-10T22:56:58.118Z,100842.13
2023-04-10T22:59:33.030Z,100846.28
2023-04-10T23:02:04.503Z,100823.69
2023-04-10T23:04:33.746Z,100858.63
2023-04-10T23:07:02.896Z,100856.75
2023-04-10T23:09:31.982Z,100833.09
2023-04-10T23:12:02.554Z,100847.16
2023-04-10T23:14:31.753Z,100846.38
2023-04-10T23:17:00.844Z,100843.72
2023-04-10T23:19:34.852Z,100820.84
2023-04-10T23:22:07.291Z,100823.03
2023-04-10T23:24:36.736Z,100837.66
2023-04-10T23:27:08.130Z,100832.16
2023-04-10T23:29:37.179Z,100812.13
2023-04-10T23:32:08.618Z,100834.53
2023-04-10T23:34:38.411Z,100825.03
2023-04-10T23:37:07.769Z,100831.00
2023-04-10T23:39:37.186Z,100822.25
2023-04-10T23:42:08.272Z,100822.09
2023-04-10T23:44:37.340Z,100812.50
2023-04-10T23:47:07.311Z,100786.00
2023-04-10T23:49:36.588Z,100786.34
2023-04-10T23:52:06.121Z,100805.47
2023-04-10T23:54:35.584Z,100795.09
2023-04-10T23:57:05.360Z,100807.66
2023-04-10T23:59:36.028Z,100788.38
